Time,TemperatureF,DewpointF,PressureIn,WindDirection,WindDirectionDegrees,WindSpeedMPH,WindSpeedGustMPH,Humidity,HourlyPrecipIn,Conditions,Clouds,dailyrainin,SolarRadiationWatts/m^2,SoftwareType,DateUTC
2013-08-04 00:01:00,71.0,69.8,29.92,East,86,0.0,0.0,96,0.00,,---,0.00,0.00,VWS V14.01,2013-08-04 04:01:00,
2013-08-04 00:06:00,71.0,69.8,29.92,East,86,0.0,0.0,96,0.00,,---,0.00,0.00,VWS V14.01,2013-08-04 04:06:00,
2013-08-04 00:11:00,70.9,69.7,29.92,East,86,0.0,0.0,96,0.00,,---,0.00,0.00,VWS V14.01,2013-08-04 04:11:00,
2013-08-04 00:16:00,70.8,69.6,29.92,East,86,0.0,0.0,96,0.00,,---,0.00,0.00,VWS V14.01,2013-08-04 04:16:00,
2013-08-04 00:21:00,70.8,69.6,29.92,East,86,0.0,0.0,96,0.00,,---,0.00,0.00,VWS V14.01,2013-08-04 04:21:00,
2013-08-04 00:26:00,70.8,69.6,29.91,East,86,0.0,0.0,96,0.00,,---,0.00,0.00,VWS V14.01,2013-08-04 04:26:00,
2013-08-04 00:31:00,70.8,69.6,29.92,East,86,0.0,0.0,96,0.00,,---,0.00,0.00,VWS V14.01,2013-08-04 04:31:00,
2013-08-04 00:36:00,70.7,69.5,29.92,East,86,0.0,0.0,96,0.00,,---,0.00,0.00,VWS V14.01,2013-08-04 04:36:00,
2013-08-04 00:41:00,70.7,69.5,29.91,East,86,0.0,0.0,96,0.00,,---,0.00,0.00,VWS V14.01,2013-08-04 04:41:00,
2013-08-04 00:46:00,70.6,69.4,29.91,East,86,0.0,0.0,96,0.00,,---,0.00,0.00,VWS V14.01,2013-08-04 04:46:00,
2013-08-04 00:51:00,70.6,69.4,29.91,East,86,0.0,0.0,96,0.00,,---,0.00,0.00,VWS V14.01,2013-08-04 04:51:00,
2013-08-04 00:56:00,70.6,69.4,29.91,East,86,0.0,0.0,96,0.00,,---,0.00,0.00,VWS V14.01,2013-08-04 04:56:00,
2013-08-04 01:01:00,70.5,69.3,29.91,East,86,0.0,0.0,96,0.00,,---,0.00,0.00,VWS V14.01,2013-08-04 05:01:00,
2013-08-04 01:06:00,70.4,69.2,29.90,East,86,0.0,0.0,96,0.00,,---,0.00,0.00,VWS V14.01,2013-08-04 05:06:00,
2013-08-04 01:11:00,70.4,69.2,29.90,East,86,0.0,0.0,96,0.00,,---,0.00,0.00,VWS V14.01,2013-08-04 05:11:00,
2013-08-04 01:16:00,70.3,69.1,29.90,East,86,0.0,0.0,96,0.00,,---,0.00,0.00,VWS V14.01,2013-08-04 05:16:00,
2013-08-04 01:21:00,70.3,69.1,29.90,East,86,0.0,0.0,96,0.00,,---,0.00,0.00,VWS V14.01,2013-08-04 05:21:00,
2013-08-04 01:26:00,70.2,69.0,29.89,East,86,0.0,0.0,96,0.00,,---,0.00,0.00,VWS V14.01,2013-08-04 05:26:00,
2013-08-04 01:31:00,70.2,69.0,29.89,East,86,0.0,0.0,96,0.00,,---,0.00,0.00,VWS V14.01,2013-08-04 05:31:00,
2013-08-04 01:36:00,70.2,69.0,29.89,East,86,0.0,0.0,96,0.00,,---,0.00,0.00,VWS V14.01,2013-08-04 05:36:00,
2013-08-04 01:41:00,70.1,68.9,29.89,East,86,0.0,0.0,96,0.00,,---,0.00,0.00,VWS V14.01,2013-08-04 05:41:00,
2013-08-04 01:46:00,70.1,68.9,29.89,East,86,0.0,0.0,96,0.00,,---,0.00,0.00,VWS V14.01,2013-08-04 05:46:00,
2013-08-04 01:51:00,70.0,68.8,29.89,East,86,0.0,0.0,96,0.00,,---,0.00,0.00,VWS V14.01,2013-08-04 05:51:00,
2013-08-04 01:56:00,70.1,68.9,29.89,East,86,0.0,0.0,96,0.00,,---,0.00,0.00,VWS V14.01,2013-08-04 05:56:00,
2013-08-04 02:01:00,70.1,68.9,29.89,East,86,0.0,0.0,96,0.00,,---,0.00,0.00,VWS V14.01,2013-08-04 06:01:00,
2013-08-04 02:06:00,70.1,68.9,29.89,East,86,0.0,0.0,96,0.00,,---,0.00,0.00,VWS V14.01,2013-08-04 06:06:00,
2013-08-04 02:11:00,70.0,68.8,29.89,East,86,0.0,0.0,96,0.00,,---,0.00,0.00,VWS V14.01,2013-08-04 06:11:00,
2013-08-04 02:16:00,70.0,68.8,29.88,East,86,0.0,0.0,96,0.00,,---,0.00,0.00,VWS V14.01,2013-08-04 06:16:00,
2013-08-04 02:21:00,69.9,69.0,29.88,East,86,0.0,0.0,97,0.00,,---,0.00,0.00,VWS V14.01,2013-08-04 06:21:00,
2013-08-04 02:26:00,69.9,69.0,29.88,East,86,0.0,0.0,97,0.00,,---,0.00,0.00,VWS V14.01,2013-08-04 06:26:00,
2013-08-04 02:31:00,69.9,69.0,29.88,East,86,0.0,0.0,97,0.00,,---,0.00,0.00,VWS V14.01,2013-08-04 06:31:00,
2013-08-04 02:36:00,69.9,69.0,29.88,East,86,0.0,0.0,97,0.00,,---,0.00,0.00,VWS V14.01,2013-08-04 06:36:00,
2013-08-04 02:41:00,69.8,68.9,29.88,East,86,0.0,0.0,97,0.00,,---,0.00,0.00,VWS V14.01,2013-08-04 06:41:00,
2013-08-04 02:46:00,69.8,68.9,29.88,East,86,0.0,0.0,97,0.00,,---,0.00,0.00,VWS V14.01,2013-08-04 06:46:00,
2013-08-04 02:51:00,69.8,68.9,29.88,East,86,0.0,0.0,97,0.00,,---,0.00,0.00,VWS V14.01,2013-08-04 06:51:00,
2013-08-04 02:56:00,69.7,68.8,29.88,East,86,0.0,0.0,97,0.00,,---,0.00,0.00,VWS V14.01,2013-08-04 06:56:00,
2013-08-04 03:01:00,69.7,68.8,29.87,East,86,0.0,0.0,97,0.00,,---,0.00,0.00,VWS V14.01,2013-08-04 07:01:00,
2013-08-04 03:06:00,69.8,68.9,29.87,East,86,0.0,0.0,97,0.00,,---,0.00,0.00,VWS V14.01,2013-08-04 07:06:00,
2013-08-04 03:11:00,69.8,68.9,29.87,East,86,0.0,0.0,97,0.00,,---,0.00,0.00,VWS V14.01,2013-08-04 07:11:00,
2013-08-04 03:16:00,69.8,68.9,29.87,East,86,0.0,0.0,97,0.00,,---,0.00,0.00,VWS V14.01,2013-08-04 07:16:00,
2013-08-04 03:21:00,69.8,68.9,29.87,East,86,0.0,0.0,97,0.00,,---,0.00,0.00,VWS V14.01,2013-08-04 07:21:00,
2013-08-04 03:26:00,69.7,68.8,29.87,East,86,0.0,0.0,97,0.00,,---,0.00,0.00,VWS V14.01,2013-08-04 07:26:00,
2013-08-04 03:31:00,69.7,68.8,29.87,East,86,0.0,0.0,97,0.00,,---,0.00,0.00,VWS V14.01,2013-08-04 07:31:00,
2013-08-04 03:35:00,69.7,68.8,29.87,East,86,0.0,0.0,97,0.00,,---,0.00,0.00,VWS V14.01,2013-08-04 07:35:00,
2013-08-04 03:40:00,69.6,68.7,29.87,East,86,0.0,0.0,97,0.00,,---,0.00,0.00,VWS V14.01,2013-08-04 07:40:00,
2013-08-04 03:46:00,69.6,68.7,29.87,East,86,0.0,0.0,97,0.00,,---,0.00,0.00,VWS V14.01,2013-08-04 07:46:00,
2013-08-04 03:50:00,69.5,68.6,29.87,East,86,0.0,0.0,97,0.00,,---,0.00,0.00,VWS V14.01,2013-08-04 07:50:00,
2013-08-04 03:56:00,69.5,68.6,29.86,East,86,0.0,0.0,97,0.00,,---,0.00,0.00,VWS V14.01,2013-08-04 07:56:00,
2013-08-04 04:01:00,69.5,68.6,29.86,East,86,0.0,0.0,97,0.00,,---,0.00,0.00,VWS V14.01,2013-08-04 08:01:00,
2013-08-04 04:06:00,69.5,68.6,29.86,East,86,0.0,0.0,97,0.00,,---,0.00,0.00,VWS V14.01,2013-08-04 08:06:00,
2013-08-04 04:11:00,69.6,68.7,29.86,East,86,0.0,0.0,97,0.00,,---,0.00,0.00,VWS V14.01,2013-08-04 08:11:00,
2013-08-04 04:16:00,69.7,68.8,29.86,East,86,0.0,0.0,97,0.00,,---,0.00,0.00,VWS V14.01,2013-08-04 08:16:00,
2013-08-04 04:21:00,69.9,69.0,29.86,NNE,19,1.0,2.0,97,0.00,,---,0.00,0.00,VWS V14.01,2013-08-04 08:21:00,
2013-08-04 04:26:00,70.3,69.4,29.86,NE,55,0.0,2.0,97,0.00,,---,0.00,0.00,VWS V14.01,2013-08-04 08:26:00,
2013-08-04 04:31:00,70.7,70.1,29.86,NE,55,0.0,2.0,98,0.00,,---,0.00,0.00,VWS V14.01,2013-08-04 08:31:00,
2013-08-04 04:36:00,71.1,70.5,29.86,WNW,297,1.0,2.0,98,0.00,,---,0.00,0.00,VWS V14.01,2013-08-04 08:36:00,
2013-08-04 04:41:00,71.5,70.9,29.86,WNW,288,2.0,2.0,98,0.00,,---,0.00,0.00,VWS V14.01,2013-08-04 08:41:00,
2013-08-04 04:46:00,71.8,71.2,29.86,North,360,0.0,5.0,98,0.00,,---,0.00,0.00,VWS V14.01,2013-08-04 08:46:00,
2013-08-04 04:51:00,71.9,71.3,29.86,North,360,0.0,5.0,98,0.00,,---,0.00,0.00,VWS V14.01,2013-08-04 08:51:00,
2013-08-04 04:55:00,72.0,71.4,29.86,North,360,0.0,5.0,98,0.00,,---,0.00,0.00,VWS V14.01,2013-08-04 08:55:00,
2013-08-04 05:01:00,72.0,71.4,29.86,North,360,0.0,1.0,98,0.00,,---,0.00,0.00,VWS V14.01,2013-08-04 09:01:00,
2013-08-04 05:06:00,72.0,71.4,29.86,North,360,0.0,1.0,98,0.00,,---,0.00,0.00,VWS V14.01,2013-08-04 09:06:00,
2013-08-04 05:11:00,71.9,71.3,29.86,North,360,0.0,1.0,98,0.00,,---,0.00,0.00,VWS V14.01,2013-08-04 09:11:00,
2013-08-04 05:16:00,71.9,71.3,29.87,North,360,0.0,1.0,98,0.00,,---,0.00,0.00,VWS V14.01,2013-08-04 09:16:00,
2013-08-04 05:21:00,71.9,71.3,29.87,North,355,3.0,6.0,98,0.00,,---,0.00,0.00,VWS V14.01,2013-08-04 09:21:00,
2013-08-04 05:26:00,72.0,71.4,29.87,NW,326,0.0,6.0,98,0.00,,---,0.00,0.00,VWS V14.01,2013-08-04 09:26:00,
2013-08-04 05:30:00,72.0,71.4,29.87,NW,326,0.0,0.0,98,0.00,,---,0.00,0.00,VWS V14.01,2013-08-04 09:30:00,
2013-08-04 05:36:00,72.0,71.4,29.87,North,355,2.0,3.0,98,0.00,,---,0.00,0.00,VWS V14.01,2013-08-04 09:36:00,
2013-08-04 05:41:00,72.0,71.4,29.87,NNW,336,0.0,3.0,98,0.00,,---,0.00,0.00,VWS V14.01,2013-08-04 09:41:00,
2013-08-04 05:46:00,72.0,71.1,29.87,NNE,15,0.0,4.0,97,0.00,,---,0.00,0.00,VWS V14.01,2013-08-04 09:46:00,
2013-08-04 05:50:00,72.1,71.2,29.87,NNE,15,0.0,4.0,97,0.00,,---,0.00,0.00,VWS V14.01,2013-08-04 09:50:00,
2013-08-04 05:55:00,72.1,71.2,29.87,NNE,13,1.0,4.0,97,0.00,,---,0.00,0.00,VWS V14.01,2013-08-04 09:55:00,
2013-08-04 06:00:00,72.2,71.6,29.88,NNW,336,0.0,1.0,98,0.00,,---,0.00,0.00,VWS V14.01,2013-08-04 10:00:00,
2013-08-04 06:05:00,72.2,71.3,29.88,WSW,239,0.0,5.0,97,0.00,,---,0.00,0.00,VWS V14.01,2013-08-04 10:05:00,
2013-08-04 06:10:00,72.3,71.4,29.88,NW,309,0.0,5.0,97,0.00,,---,0.00,0.00,VWS V14.01,2013-08-04 10:10:00,
2013-08-04 06:15:00,72.3,71.4,29.88,NNW,345,0.0,5.0,97,0.00,,---,0.00,0.00,VWS V14.01,2013-08-04 10:15:00,
2013-08-04 06:20:00,72.4,71.8,29.88,NNW,345,0.0,5.0,98,0.00,,---,0.00,0.00,VWS V14.01,2013-08-04 10:20:00,
2013-08-04 06:25:00,72.4,71.8,29.88,North,355,1.0,5.0,98,0.00,,---,0.00,0.00,VWS V14.01,2013-08-04 10:25:00,
2013-08-04 06:30:00,72.4,71.8,29.88,North,10,0.0,0.0,98,0.00,,---,0.00,0.00,VWS V14.01,2013-08-04 10:30:00,
2013-08-04 06:35:00,72.4,71.8,29.88,North,10,0.0,0.0,98,0.00,,---,0.00,0.00,VWS V14.01,2013-08-04 10:35:00,
2013-08-04 06:40:00,72.5,71.9,29.89,North,10,0.0,0.0,98,0.00,,---,0.00,12.00,VWS V14.01,2013-08-04 10:40:00,
2013-08-04 06:45:00,72.5,71.9,29.89,North,10,0.0,0.0,98,0.00,,---,0.00,23.00,VWS V14.01,2013-08-04 10:45:00,
2013-08-04 06:50:00,72.5,71.9,29.89,North,10,0.0,0.0,98,0.00,,---,0.00,25.00,VWS V14.01,2013-08-04 10:50:00,
2013-08-04 06:55:00,72.5,71.9,29.89,North,10,0.0,0.0,98,0.00,,---,0.00,26.00,VWS V14.01,2013-08-04 10:55:00,
2013-08-04 07:00:00,72.5,71.9,29.90,North,10,0.0,0.0,98,0.00,,---,0.00,32.00,VWS V14.01,2013-08-04 11:00:00,
2013-08-04 07:05:00,72.6,72.0,29.90,North,10,0.0,1.0,98,0.00,,---,0.00,40.00,VWS V14.01,2013-08-04 11:05:00,
2013-08-04 07:10:00,72.7,72.1,29.90,North,10,0.0,2.0,98,0.00,,---,0.00,47.00,VWS V14.01,2013-08-04 11:10:00,
2013-08-04 07:15:00,72.8,72.2,29.90,NNW,348,4.0,4.0,98,0.00,,---,0.00,51.00,VWS V14.01,2013-08-04 11:15:00,
2013-08-04 07:20:00,72.9,72.3,29.91,NNE,17,0.0,4.0,98,0.00,,---,0.00,53.00,VWS V14.01,2013-08-04 11:20:00,
2013-08-04 07:25:00,72.9,72.3,29.91,North,11,0.0,5.0,98,0.00,,---,0.00,58.00,VWS V14.01,2013-08-04 11:25:00,
2013-08-04 07:30:00,73.0,72.4,29.91,NW,315,1.0,2.0,98,0.00,,---,0.00,141.00,VWS V14.01,2013-08-04 11:30:00,
2013-08-04 07:35:00,73.0,72.4,29.91,North,355,1.0,5.0,98,0.00,,---,0.00,90.00,VWS V14.01,2013-08-04 11:35:00,
2013-08-04 07:40:00,73.1,72.5,29.91,North,5,5.0,5.0,98,0.00,,---,0.00,113.00,VWS V14.01,2013-08-04 11:40:00,
2013-08-04 07:45:00,73.1,72.5,29.91,North,5,1.0,6.0,98,0.00,,---,0.00,102.00,VWS V14.01,2013-08-04 11:45:00,
2013-08-04 07:50:00,73.2,72.6,29.91,North,5,0.0,6.0,98,0.00,,---,0.00,102.00,VWS V14.01,2013-08-04 11:50:00,
2013-08-04 07:55:00,73.3,72.7,29.91,North,5,1.0,6.0,98,0.00,,---,0.00,98.00,VWS V14.01,2013-08-04 11:55:00,
2013-08-04 08:00:00,73.3,72.7,29.91,North,5,1.0,1.0,98,0.00,,---,0.00,104.00,VWS V14.01,2013-08-04 12:00:00,
2013-08-04 08:05:00,73.5,72.9,29.91,North,5,1.0,2.0,98,0.00,,---,0.00,127.00,VWS V14.01,2013-08-04 12:05:00,
2013-08-04 08:10:00,73.6,73.0,29.91,North,5,0.0,2.0,98,0.00,,---,0.00,121.00,VWS V14.01,2013-08-04 12:10:00,
2013-08-04 08:15:00,73.7,73.1,29.91,North,5,0.0,4.0,98,0.00,,---,0.00,98.00,VWS V14.01,2013-08-04 12:15:00,
2013-08-04 08:20:00,73.7,72.8,29.91,North,5,0.0,5.0,97,0.00,,---,0.00,128.00,VWS V14.01,2013-08-04 12:20:00,
2013-08-04 08:25:00,73.7,72.8,29.92,North,9,2.0,5.0,97,0.00,,---,0.00,146.00,VWS V14.01,2013-08-04 12:25:00,
2013-08-04 08:30:00,73.8,72.9,29.92,North,9,1.0,3.0,97,0.00,,---,0.00,202.00,VWS V14.01,2013-08-04 12:30:00,
2013-08-04 08:35:00,73.9,73.0,29.92,NNE,15,0.0,4.0,97,0.00,,---,0.00,107.00,VWS V14.01,2013-08-04 12:35:00,
2013-08-04 08:40:00,74.0,73.1,29.92,NNE,16,0.0,4.0,97,0.00,,---,0.00,220.00,VWS V14.01,2013-08-04 12:40:00,
2013-08-04 08:45:00,74.2,73.3,29.92,NNE,17,0.0,5.0,97,0.00,,---,0.00,172.00,VWS V14.01,2013-08-04 12:45:00,
2013-08-04 08:50:00,74.4,73.2,29.92,NNE,24,0.0,5.0,96,0.00,,---,0.00,141.00,VWS V14.01,2013-08-04 12:50:00,
2013-08-04 08:55:00,74.4,73.2,29.93,NNE,14,1.0,5.0,96,0.00,,---,0.00,95.00,VWS V14.01,2013-08-04 12:55:00,
2013-08-04 09:00:00,74.5,73.0,29.94,North,10,4.0,4.0,95,0.00,,---,0.00,83.00,VWS V14.01,2013-08-04 13:00:00,
2013-08-04 09:05:00,74.5,73.0,29.93,NNE,19,1.0,4.0,95,0.00,,---,0.00,84.00,VWS V14.01,2013-08-04 13:05:00,
2013-08-04 09:10:00,74.5,72.7,29.93,North,360,1.0,6.0,94,0.00,,---,0.00,123.00,VWS V14.01,2013-08-04 13:10:00,
2013-08-04 09:15:00,74.6,72.8,29.93,NE,45,0.0,6.0,94,0.00,,---,0.00,144.00,VWS V14.01,2013-08-04 13:15:00,
2013-08-04 09:20:00,74.6,72.4,29.93,NNW,336,0.0,6.0,93,0.00,,---,0.00,172.00,VWS V14.01,2013-08-04 13:20:00,
2013-08-04 09:25:00,74.7,71.9,29.94,NNE,16,0.0,7.0,91,0.00,,---,0.00,148.00,VWS V14.01,2013-08-04 13:25:00,
2013-08-04 09:30:00,74.8,72.0,29.94,NNE,16,0.0,2.0,91,0.00,,---,0.00,183.00,VWS V14.01,2013-08-04 13:30:00,
2013-08-04 09:35:00,74.9,72.1,29.94,NNE,12,2.0,4.0,91,0.00,,---,0.00,197.00,VWS V14.01,2013-08-04 13:35:00,
2013-08-04 09:40:00,75.1,72.3,29.94,East,88,2.0,4.0,91,0.00,,---,0.00,206.00,VWS V14.01,2013-08-04 13:40:00,
2013-08-04 09:45:00,75.2,71.7,29.94,East,95,0.0,6.0,89,0.00,,---,0.00,526.00,VWS V14.01,2013-08-04 13:45:00,
2013-08-04 09:50:00,75.6,72.1,29.94,East,85,0.0,6.0,89,0.00,,---,0.00,230.00,VWS V14.01,2013-08-04 13:50:00,
2013-08-04 09:55:00,75.8,72.0,29.95,ENE,78,1.0,6.0,88,0.00,,---,0.00,248.00,VWS V14.01,2013-08-04 13:55:00,
2013-08-04 10:00:00,75.9,71.1,29.95,NNE,13,4.0,5.0,85,0.00,,---,0.00,320.00,VWS V14.01,2013-08-04 14:00:00,
2013-08-04 10:05:00,76.0,71.2,29.95,North,5,0.0,7.0,85,0.00,,---,0.00,281.00,VWS V14.01,2013-08-04 14:05:00,
2013-08-04 10:10:00,76.2,71.0,29.95,North,5,5.0,7.0,84,0.00,,---,0.00,206.00,VWS V14.01,2013-08-04 14:10:00,
2013-08-04 10:15:00,76.3,70.8,29.95,SE,144,0.0,7.0,83,0.00,,---,0.00,587.00,VWS V14.01,2013-08-04 14:15:00,
2013-08-04 10:20:00,76.6,70.3,29.95,ESE,114,5.0,7.0,81,0.00,,---,0.00,673.00,VWS V14.01,2013-08-04 14:20:00,
2013-08-04 10:25:00,77.0,69.6,29.95,NE,35,2.0,8.0,78,0.00,,---,0.00,272.00,VWS V14.01,2013-08-04 14:25:00,
2013-08-04 10:30:00,77.4,70.4,29.95,East,96,2.0,5.0,79,0.00,,---,0.00,606.00,VWS V14.01,2013-08-04 14:30:00,
2013-08-04 10:35:00,77.8,70.0,29.95,ESE,103,4.0,5.0,77,0.00,,---,0.00,659.00,VWS V14.01,2013-08-04 14:35:00,
2013-08-04 10:40:00,78.0,69.4,29.95,ENE,61,4.0,8.0,75,0.00,,---,0.00,322.00,VWS V14.01,2013-08-04 14:40:00,
2013-08-04 10:45:00,78.0,69.8,29.96,West,277,2.0,8.0,76,0.00,,---,0.00,281.00,VWS V14.01,2013-08-04 14:45:00,
2013-08-04 10:50:00,77.7,68.0,29.96,NNE,14,2.0,8.0,72,0.00,,---,0.00,278.00,VWS V14.01,2013-08-04 14:50:00,
2013-08-04 10:55:00,77.8,69.2,29.96,NE,44,0.0,8.0,75,0.00,,---,0.00,828.00,VWS V14.01,2013-08-04 14:55:00,
2013-08-04 11:00:00,78.1,69.1,29.96,East,99,1.0,4.0,74,0.00,,---,0.00,756.00,VWS V14.01,2013-08-04 15:00:00,
2013-08-04 11:05:00,78.4,69.8,29.96,East,92,2.0,7.0,75,0.00,,---,0.00,729.00,VWS V14.01,2013-08-04 15:05:00,
2013-08-04 11:10:00,78.7,69.7,29.96,ENE,67,7.0,7.0,74,0.00,,---,0.00,722.00,VWS V14.01,2013-08-04 15:10:00,
2013-08-04 11:15:00,78.8,68.6,29.96,ESE,115,4.0,7.0,71,0.00,,---,0.00,724.00,VWS V14.01,2013-08-04 15:15:00,
2013-08-04 11:20:00,78.9,70.3,29.96,East,86,3.0,7.0,75,0.00,,---,0.00,738.00,VWS V14.01,2013-08-04 15:20:00,
2013-08-04 11:25:00,79.5,70.1,29.97,WSW,242,0.0,7.0,73,0.00,,---,0.00,752.00,VWS V14.01,2013-08-04 15:25:00,
2013-08-04 11:30:00,79.7,69.9,29.97,ESE,122,1.0,1.0,72,0.00,,---,0.00,761.00,VWS V14.01,2013-08-04 15:30:00,
2013-08-04 11:35:00,79.9,68.8,29.97,NNE,30,8.0,10.0,69,0.00,,---,0.00,770.00,VWS V14.01,2013-08-04 15:35:00,
2013-08-04 11:40:00,79.6,68.1,29.97,SE,126,2.0,10.0,68,0.00,,---,0.00,779.00,VWS V14.01,2013-08-04 15:40:00,
2013-08-04 11:45:00,79.5,68.9,29.97,NNE,17,1.0,10.0,70,0.00,,---,0.00,784.00,VWS V14.01,2013-08-04 15:45:00,
2013-08-04 11:50:00,79.6,68.5,29.96,ENE,59,2.0,10.0,69,0.00,,---,0.00,798.00,VWS V14.01,2013-08-04 15:50:00,
2013-08-04 11:55:00,79.5,68.9,29.96,South,180,0.0,10.0,70,0.00,,---,0.00,802.00,VWS V14.01,2013-08-04 15:55:00,
2013-08-04 12:00:00,79.4,69.2,29.96,SSE,160,1.0,3.0,71,0.00,,---,0.00,805.00,VWS V14.01,2013-08-04 16:00:00,
2013-08-04 12:05:00,80.0,68.9,29.96,North,5,3.0,9.0,69,0.00,,---,0.00,831.00,VWS V14.01,2013-08-04 16:05:00,
2013-08-04 12:10:00,80.5,68.1,29.96,NNW,347,0.0,9.0,66,0.00,,---,0.00,838.00,VWS V14.01,2013-08-04 16:10:00,
2013-08-04 12:15:00,81.0,69.4,29.96,NE,52,4.0,9.0,68,0.00,,---,0.00,847.00,VWS V14.01,2013-08-04 16:15:00,
2013-08-04 12:20:00,80.8,68.8,29.95,SSW,206,0.0,9.0,67,0.00,,---,0.00,868.00,VWS V14.01,2013-08-04 16:20:00,
2013-08-04 12:25:00,81.2,69.6,29.95,ESE,105,1.0,9.0,68,0.00,,---,0.00,900.00,VWS V14.01,2013-08-04 16:25:00,
2013-08-04 12:30:00,81.3,68.4,29.95,North,5,3.0,8.0,65,0.00,,---,0.00,837.00,VWS V14.01,2013-08-04 16:30:00,
2013-08-04 12:35:00,81.2,68.8,29.95,WNW,282,0.0,10.0,66,0.00,,---,0.00,912.00,VWS V14.01,2013-08-04 16:35:00,
2013-08-04 12:40:00,81.4,69.4,29.95,ESE,111,3.0,10.0,67,0.00,,---,0.00,888.00,VWS V14.01,2013-08-04 16:40:00,
2013-08-04 12:45:00,81.8,68.9,29.95,North,355,6.0,10.0,65,0.00,,---,0.00,940.00,VWS V14.01,2013-08-04 16:45:00,
2013-08-04 12:50:00,81.8,68.4,29.94,NW,306,2.0,10.0,64,0.00,,---,0.00,1000.00,VWS V14.01,2013-08-04 16:50:00,
2013-08-04 12:55:00,81.2,68.8,29.95,East,89,2.0,10.0,66,0.00,,---,0.00,1000.00,VWS V14.01,2013-08-04 16:55:00,
2013-08-04 13:00:00,80.9,69.4,29.94,SE,124,0.0,4.0,68,0.00,,---,0.00,953.00,VWS V14.01,2013-08-04 17:00:00,
2013-08-04 13:05:00,81.5,67.2,29.94,SSW,209,2.0,5.0,62,0.00,,---,0.00,1000.00,VWS V14.01,2013-08-04 17:05:00,
2013-08-04 13:10:00,81.6,67.8,29.94,NNE,25,1.0,10.0,63,0.00,,---,0.00,984.00,VWS V14.01,2013-08-04 17:10:00,
2013-08-04 13:15:00,81.6,68.2,29.94,ENE,71,0.0,10.0,64,0.00,,---,0.00,928.00,VWS V14.01,2013-08-04 17:15:00,
2013-08-04 13:20:00,81.9,67.6,29.94,South,182,1.0,10.0,62,0.00,,---,0.00,932.00,VWS V14.01,2013-08-04 17:20:00,
2013-08-04 13:25:00,82.2,68.8,29.94,NE,55,4.0,10.0,64,0.00,,---,0.00,221.00,VWS V14.01,2013-08-04 17:25:00,
2013-08-04 13:30:00,81.6,69.2,29.94,East,92,2.0,2.0,66,0.00,,---,0.00,932.00,VWS V14.01,2013-08-04 17:30:00,
2013-08-04 13:35:00,82.4,68.6,29.94,North,5,4.0,8.0,63,0.00,,---,0.00,960.00,VWS V14.01,2013-08-04 17:35:00,
2013-08-04 13:40:00,82.9,68.6,29.94,NNE,32,1.0,11.0,62,0.00,,---,0.00,972.00,VWS V14.01,2013-08-04 17:40:00,
2013-08-04 13:45:00,83.4,68.6,29.94,ENE,67,1.0,11.0,61,0.00,,---,0.00,264.00,VWS V14.01,2013-08-04 17:45:00,
2013-08-04 13:50:00,83.0,69.6,29.94,ENE,58,5.0,11.0,64,0.00,,---,0.00,944.00,VWS V14.01,2013-08-04 17:50:00,
2013-08-04 13:55:00,82.8,66.5,29.94,NNW,342,0.0,11.0,58,0.00,,---,0.00,891.00,VWS V14.01,2013-08-04 17:55:00,
2013-08-04 14:00:00,82.5,66.7,29.94,NNE,20,4.0,6.0,59,0.00,,---,0.00,990.00,VWS V14.01,2013-08-04 18:00:00,
2013-08-04 14:05:00,83.0,68.2,29.94,North,360,4.0,7.0,61,0.00,,---,0.00,229.00,VWS V14.01,2013-08-04 18:05:00,
2013-08-04 14:10:00,83.2,70.7,29.94,West,259,4.0,7.0,66,0.00,,---,0.00,1000.00,VWS V14.01,2013-08-04 18:10:00,
2013-08-04 14:15:00,83.9,71.3,29.94,East,83,2.0,7.0,66,0.00,,---,0.00,926.00,VWS V14.01,2013-08-04 18:15:00,
2013-08-04 14:20:00,83.7,69.3,29.94,East,81,0.0,7.0,62,0.00,,---,0.00,870.00,VWS V14.01,2013-08-04 18:20:00,
2013-08-04 14:25:00,83.6,67.3,29.93,NNW,346,2.0,7.0,58,0.00,,---,0.00,854.00,VWS V14.01,2013-08-04 18:25:00,
2013-08-04 14:30:00,83.9,69.0,29.93,SW,232,2.0,6.0,61,0.00,,---,0.00,856.00,VWS V14.01,2013-08-04 18:30:00,
2013-08-04 14:35:00,84.4,69.0,29.93,WNW,292,6.0,9.0,60,0.00,,---,0.00,886.00,VWS V14.01,2013-08-04 18:35:00,
2013-08-04 14:40:00,84.2,67.3,29.93,SSE,163,0.0,10.0,57,0.00,,---,0.00,881.00,VWS V14.01,2013-08-04 18:40:00,
2013-08-04 14:45:00,84.2,68.8,29.93,NE,46,1.0,10.0,60,0.00,,---,0.00,193.00,VWS V14.01,2013-08-04 18:45:00,
2013-08-04 14:50:00,83.6,67.8,29.93,North,5,0.0,10.0,59,0.00,,---,0.00,837.00,VWS V14.01,2013-08-04 18:50:00,
2013-08-04 14:55:00,84.2,67.8,29.92,South,188,3.0,10.0,58,0.00,,---,0.00,788.00,VWS V14.01,2013-08-04 18:55:00,
2013-08-04 15:00:00,84.1,66.2,29.92,ENE,64,4.0,5.0,55,0.00,,---,0.00,782.00,VWS V14.01,2013-08-04 19:00:00,
2013-08-04 15:05:00,83.9,65.5,29.92,NNE,31,2.0,7.0,54,0.00,,---,0.00,816.00,VWS V14.01,2013-08-04 19:05:00,
2013-08-04 15:10:00,84.5,67.1,29.92,NNW,337,1.0,7.0,56,0.00,,---,0.00,847.00,VWS V14.01,2013-08-04 19:10:00,
2013-08-04 15:15:00,85.0,68.1,29.93,SW,223,4.0,7.0,57,0.00,,---,0.00,865.00,VWS V14.01,2013-08-04 19:15:00,
2013-08-04 15:20:00,84.9,66.9,29.92,North,355,5.0,8.0,55,0.00,,---,0.00,288.00,VWS V14.01,2013-08-04 19:20:00,
2013-08-04 15:25:00,84.2,67.8,29.92,NNW,344,7.0,8.0,58,0.00,,---,0.00,775.00,VWS V14.01,2013-08-04 19:25:00,
2013-08-04 15:30:00,84.5,66.6,29.92,NNE,17,1.0,7.0,55,0.00,,---,0.00,726.00,VWS V14.01,2013-08-04 19:30:00,
2013-08-04 15:35:00,84.8,66.8,29.92,South,190,1.0,7.0,55,0.00,,---,0.00,717.00,VWS V14.01,2013-08-04 19:35:00,
2013-08-04 15:40:00,84.4,64.9,29.92,NNE,20,2.0,8.0,52,0.00,,---,0.00,698.00,VWS V14.01,2013-08-04 19:40:00,
2013-08-04 15:45:00,84.5,68.1,29.92,NNE,13,1.0,8.0,58,0.00,,---,0.00,731.00,VWS V14.01,2013-08-04 19:45:00,
2013-08-04 15:50:00,85.0,68.1,29.92,ENE,76,0.0,8.0,57,0.00,,---,0.00,773.00,VWS V14.01,2013-08-04 19:50:00,
2013-08-04 15:55:00,85.0,66.0,29.92,East,98,3.0,8.0,53,0.00,,---,0.00,791.00,VWS V14.01,2013-08-04 19:55:00,
2013-08-04 16:00:00,84.6,66.7,29.93,NE,43,2.0,2.0,55,0.00,,---,0.00,167.00,VWS V14.01,2013-08-04 20:00:00,
2013-08-04 16:05:00,83.7,64.2,29.93,North,355,0.0,5.0,52,0.00,,---,0.00,104.00,VWS V14.01,2013-08-04 20:05:00,
2013-08-04 16:10:00,83.5,67.2,29.93,SE,131,0.0,5.0,58,0.00,,---,0.00,647.00,VWS V14.01,2013-08-04 20:10:00,
2013-08-04 16:15:00,83.8,63.2,29.93,SE,146,0.0,6.0,50,0.00,,---,0.00,631.00,VWS V14.01,2013-08-04 20:15:00,
2013-08-04 16:20:00,84.1,64.0,29.93,NW,313,4.0,6.0,51,0.00,,---,0.00,621.00,VWS V14.01,2013-08-04 20:20:00,
2013-08-04 16:25:00,84.2,65.8,29.93,East,84,2.0,6.0,54,0.00,,---,0.00,621.00,VWS V14.01,2013-08-04 20:25:00,
2013-08-04 16:30:00,84.6,67.2,29.93,NE,36,0.0,2.0,56,0.00,,---,0.00,633.00,VWS V14.01,2013-08-04 20:30:00,
2013-08-04 16:35:00,84.6,63.9,29.93,NNE,16,1.0,6.0,50,0.00,,---,0.00,650.00,VWS V14.01,2013-08-04 20:35:00,
2013-08-04 16:40:00,84.8,63.0,29.93,West,270,0.0,7.0,48,0.00,,---,0.00,195.00,VWS V14.01,2013-08-04 20:40:00,
2013-08-04 16:45:00,84.2,64.7,29.93,West,277,0.0,7.0,52,0.00,,---,0.00,146.00,VWS V14.01,2013-08-04 20:45:00,
2013-08-04 16:50:00,83.1,67.3,29.93,NNE,14,4.0,7.0,59,0.00,,---,0.00,613.00,VWS V14.01,2013-08-04 20:50:00,
2013-08-04 16:55:00,83.3,66.0,29.93,North,5,1.0,7.0,56,0.00,,---,0.00,197.00,VWS V14.01,2013-08-04 20:55:00,
2013-08-04 17:00:00,83.1,68.3,29.93,NE,55,1.0,2.0,61,0.00,,---,0.00,339.00,VWS V14.01,2013-08-04 21:00:00,
2013-08-04 17:05:00,83.2,67.9,29.93,East,84,1.0,2.0,60,0.00,,---,0.00,315.00,VWS V14.01,2013-08-04 21:05:00,
2013-08-04 17:10:00,83.2,68.4,29.93,NE,43,0.0,2.0,61,0.00,,---,0.00,489.00,VWS V14.01,2013-08-04 21:10:00,
2013-08-04 17:15:00,83.7,69.8,29.93,NE,51,0.0,2.0,63,0.00,,---,0.00,473.00,VWS V14.01,2013-08-04 21:15:00,
2013-08-04 17:20:00,83.9,70.0,29.93,NE,51,1.0,2.0,63,0.00,,---,0.00,461.00,VWS V14.01,2013-08-04 21:20:00,
2013-08-04 17:25:00,83.8,69.9,29.93,ENE,76,1.0,2.0,63,0.00,,---,0.00,443.00,VWS V14.01,2013-08-04 21:25:00,
2013-08-04 17:30:00,84.2,72.5,29.93,ENE,78,0.0,0.0,68,0.00,,---,0.00,424.00,VWS V14.01,2013-08-04 21:30:00,
2013-08-04 17:35:00,84.4,70.0,29.93,SE,129,0.0,2.0,62,0.00,,---,0.00,403.00,VWS V14.01,2013-08-04 21:35:00,
2013-08-04 17:40:00,84.7,71.6,29.93,SE,129,0.0,2.0,65,0.00,,---,0.00,380.00,VWS V14.01,2013-08-04 21:40:00,
2013-08-04 17:45:00,84.7,64.0,29.93,ESE,103,0.0,6.0,50,0.00,,---,0.00,383.00,VWS V14.01,2013-08-04 21:45:00,
2013-08-04 17:49:00,84.7,66.8,29.93,ESE,103,1.0,6.0,55,0.00,,---,0.00,373.00,VWS V14.01,2013-08-04 21:49:00,
2013-08-04 17:54:00,85.0,71.5,29.93,ESE,103,0.0,6.0,64,0.00,,---,0.00,352.00,VWS V14.01,2013-08-04 21:54:00,
2013-08-04 17:59:00,85.0,67.0,29.93,ESE,118,0.0,6.0,55,0.00,,---,0.00,343.00,VWS V14.01,2013-08-04 21:59:00,
2013-08-04 18:04:00,85.0,68.1,29.93,SSW,203,0.0,1.0,57,0.00,,---,0.00,325.00,VWS V14.01,2013-08-04 22:04:00,
2013-08-04 18:09:00,84.9,68.0,29.93,SSW,200,0.0,1.0,57,0.00,,---,0.00,297.00,VWS V14.01,2013-08-04 22:09:00,
2013-08-04 18:13:00,85.0,70.1,29.93,East,97,0.0,2.0,61,0.00,,---,0.00,281.00,VWS V14.01,2013-08-04 22:13:00,
2013-08-04 18:19:00,84.8,67.9,29.93,East,97,1.0,2.0,57,0.00,,---,0.00,269.00,VWS V14.01,2013-08-04 22:19:00,
2013-08-04 18:24:00,84.6,70.6,29.93,East,97,0.0,2.0,63,0.00,,---,0.00,262.00,VWS V14.01,2013-08-04 22:24:00,
2013-08-04 18:29:00,84.3,70.8,29.93,East,97,0.0,2.0,64,0.00,,---,0.00,246.00,VWS V14.01,2013-08-04 22:29:00,
2013-08-04 18:34:00,84.2,71.6,29.93,East,97,0.0,0.0,66,0.00,,---,0.00,232.00,VWS V14.01,2013-08-04 22:34:00,
2013-08-04 18:39:00,83.9,70.9,29.93,East,97,0.0,0.0,65,0.00,,---,0.00,207.00,VWS V14.01,2013-08-04 22:39:00,
2013-08-04 18:44:00,83.6,71.1,29.93,East,97,0.0,2.0,66,0.00,,---,0.00,190.00,VWS V14.01,2013-08-04 22:44:00,
2013-08-04 18:48:00,83.2,70.7,29.93,East,97,0.0,2.0,66,0.00,,---,0.00,51.00,VWS V14.01,2013-08-04 22:48:00,
2013-08-04 18:54:00,82.7,70.6,29.93,East,97,0.0,2.0,67,0.00,,---,0.00,47.00,VWS V14.01,2013-08-04 22:54:00,
2013-08-04 18:59:00,82.0,70.4,29.93,East,97,0.0,2.0,68,0.00,,---,0.00,46.00,VWS V14.01,2013-08-04 22:59:00,
2013-08-04 19:04:00,81.3,70.6,29.93,East,97,0.0,1.0,70,0.00,,---,0.00,44.00,VWS V14.01,2013-08-04 23:04:00,
2013-08-04 19:08:00,80.8,70.5,29.93,East,97,0.0,1.0,71,0.00,,---,0.00,42.00,VWS V14.01,2013-08-04 23:08:00,
2013-08-04 19:14:00,80.4,71.0,29.93,East,97,0.0,1.0,73,0.00,,---,0.00,42.00,VWS V14.01,2013-08-04 23:14:00,
2013-08-04 19:19:00,79.9,70.9,29.94,East,97,0.0,1.0,74,0.00,,---,0.00,40.00,VWS V14.01,2013-08-04 23:19:00,
2013-08-04 19:24:00,79.4,70.8,29.94,East,97,0.0,1.0,75,0.00,,---,0.00,35.00,VWS V14.01,2013-08-04 23:24:00,
2013-08-04 19:28:00,78.7,70.1,29.94,East,97,0.0,2.0,75,0.00,,---,0.00,32.00,VWS V14.01,2013-08-04 23:28:00,
2013-08-04 19:34:00,78.0,69.8,29.94,East,97,0.0,2.0,76,0.00,,---,0.00,28.00,VWS V14.01,2013-08-04 23:34:00,
2013-08-04 19:39:00,77.6,69.8,29.94,East,97,0.0,2.0,77,0.00,,---,0.00,23.00,VWS V14.01,2013-08-04 23:39:00,
2013-08-04 19:43:00,77.2,70.2,29.94,East,97,0.0,2.0,79,0.00,,---,0.00,16.00,VWS V14.01,2013-08-04 23:43:00,
2013-08-04 19:49:00,76.8,70.2,29.94,East,97,0.0,2.0,80,0.00,,---,0.00,14.00,VWS V14.01,2013-08-04 23:49:00,
2013-08-04 19:53:00,76.5,70.2,29.95,East,97,0.0,2.0,81,0.00,,---,0.00,14.00,VWS V14.01,2013-08-04 23:53:00,
2013-08-04 19:59:00,76.2,69.9,29.95,East,97,0.0,2.0,81,0.00,,---,0.00,12.00,VWS V14.01,2013-08-04 23:59:00,
2013-08-04 20:04:00,75.9,69.7,29.95,East,97,0.0,0.0,81,0.00,,---,0.00,9.00,VWS V14.01,2013-08-05 00:04:00,
2013-08-04 20:09:00,75.6,69.4,29.95,East,97,0.0,0.0,81,0.00,,---,0.00,5.00,VWS V14.01,2013-08-05 00:09:00,
2013-08-04 20:14:00,75.3,69.4,29.95,East,97,0.0,0.0,82,0.00,,---,0.00,0.00,VWS V14.01,2013-08-05 00:14:00,
2013-08-04 20:19:00,74.9,69.0,29.95,East,97,0.0,0.0,82,0.00,,---,0.00,0.00,VWS V14.01,2013-08-05 00:19:00,
2013-08-04 20:23:00,74.5,69.0,29.95,East,97,0.0,0.0,83,0.00,,---,0.00,0.00,VWS V14.01,2013-08-05 00:23:00,
2013-08-04 20:29:00,74.2,68.7,29.96,East,97,0.0,0.0,83,0.00,,---,0.00,0.00,VWS V14.01,2013-08-05 00:29:00,
2013-08-04 20:34:00,73.8,68.7,29.96,East,97,0.0,0.0,84,0.00,,---,0.00,0.00,VWS V14.01,2013-08-05 00:34:00,
2013-08-04 20:39:00,73.5,68.4,29.95,East,97,0.0,0.0,84,0.00,,---,0.00,0.00,VWS V14.01,2013-08-05 00:39:00,
2013-08-04 20:44:00,73.1,68.3,29.96,East,97,0.0,0.0,85,0.00,,---,0.00,0.00,VWS V14.01,2013-08-05 00:44:00,
2013-08-04 20:49:00,72.9,68.5,29.95,East,97,0.0,0.0,86,0.00,,---,0.00,0.00,VWS V14.01,2013-08-05 00:49:00,
2013-08-04 20:53:00,72.5,68.4,29.96,East,97,0.0,0.0,87,0.00,,---,0.00,0.00,VWS V14.01,2013-08-05 00:53:00,
2013-08-04 20:58:00,72.2,67.8,29.96,East,97,0.0,0.0,86,0.00,,---,0.00,0.00,VWS V14.01,2013-08-05 00:58:00,
2013-08-04 21:04:00,72.0,67.6,29.96,East,97,0.0,0.0,86,0.00,,---,0.00,0.00,VWS V14.01,2013-08-05 01:04:00,
2013-08-04 21:09:00,71.7,67.6,29.96,East,97,0.0,1.0,87,0.00,,---,0.00,0.00,VWS V14.01,2013-08-05 01:09:00,
2013-08-04 21:14:00,71.4,67.3,29.97,East,97,0.0,1.0,87,0.00,,---,0.00,0.00,VWS V14.01,2013-08-05 01:14:00,
2013-08-04 21:19:00,71.2,67.1,29.97,East,97,0.0,1.0,87,0.00,,---,0.00,0.00,VWS V14.01,2013-08-05 01:19:00,
2013-08-04 21:24:00,71.0,67.3,29.97,East,97,0.0,1.0,88,0.00,,---,0.00,0.00,VWS V14.01,2013-08-05 01:24:00,
2013-08-04 21:29:00,70.7,66.7,29.97,East,97,0.0,1.0,87,0.00,,---,0.00,0.00,VWS V14.01,2013-08-05 01:29:00,
2013-08-04 21:34:00,70.5,66.8,29.97,East,97,0.0,0.0,88,0.00,,---,0.00,0.00,VWS V14.01,2013-08-05 01:34:00,
2013-08-04 21:38:00,70.2,66.5,29.98,East,97,0.0,0.0,88,0.00,,---,0.00,0.00,VWS V14.01,2013-08-05 01:38:00,
2013-08-04 21:43:00,70.0,66.6,29.98,East,97,0.0,1.0,89,0.00,,---,0.00,0.00,VWS V14.01,2013-08-05 01:43:00,
2013-08-04 21:48:00,69.7,66.3,29.98,East,97,0.0,1.0,89,0.00,,---,0.00,0.00,VWS V14.01,2013-08-05 01:48:00,
2013-08-04 21:53:00,69.5,66.1,29.98,East,97,0.0,1.0,89,0.00,,---,0.00,0.00,VWS V14.01,2013-08-05 01:53:00,
2013-08-04 21:58:00,69.3,65.9,29.98,East,97,0.0,1.0,89,0.00,,---,0.00,0.00,VWS V14.01,2013-08-05 01:58:00,
2013-08-04 22:03:00,69.2,65.8,29.99,East,97,0.0,0.0,89,0.00,,---,0.00,0.00,VWS V14.01,2013-08-05 02:03:00,
2013-08-04 22:08:00,69.0,65.6,29.99,East,97,0.0,1.0,89,0.00,,---,0.00,0.00,VWS V14.01,2013-08-05 02:08:00,
2013-08-04 22:13:00,68.8,65.4,29.99,East,97,0.0,1.0,89,0.00,,---,0.00,0.00,VWS V14.01,2013-08-05 02:13:00,
2013-08-04 22:18:00,68.7,65.7,29.99,East,97,0.0,1.0,90,0.00,,---,0.00,0.00,VWS V14.01,2013-08-05 02:18:00,
2013-08-04 22:23:00,68.6,65.6,29.99,East,97,0.0,1.0,90,0.00,,---,0.00,0.00,VWS V14.01,2013-08-05 02:23:00,
2013-08-04 22:28:00,68.4,65.4,30.00,East,97,0.0,1.0,90,0.00,,---,0.00,0.00,VWS V14.01,2013-08-05 02:28:00,
2013-08-04 22:33:00,68.2,65.2,30.00,East,97,0.0,0.0,90,0.00,,---,0.00,0.00,VWS V14.01,2013-08-05 02:33:00,
2013-08-04 22:38:00,68.1,65.4,30.00,East,97,0.0,0.0,91,0.00,,---,0.00,0.00,VWS V14.01,2013-08-05 02:38:00,
2013-08-04 22:43:00,67.9,65.2,30.00,East,97,0.0,0.0,91,0.00,,---,0.00,0.00,VWS V14.01,2013-08-05 02:43:00,
2013-08-04 22:48:00,67.8,65.1,30.00,East,97,0.0,0.0,91,0.00,,---,0.00,0.00,VWS V14.01,2013-08-05 02:48:00,
2013-08-04 22:53:00,67.6,64.9,30.00,East,97,0.0,1.0,91,0.00,,---,0.00,0.00,VWS V14.01,2013-08-05 02:53:00,
2013-08-04 22:58:00,67.5,65.1,30.00,East,97,0.0,1.0,92,0.00,,---,0.00,0.00,VWS V14.01,2013-08-05 02:58:00,
2013-08-04 23:03:00,67.4,65.0,30.00,East,97,0.0,0.0,92,0.00,,---,0.00,0.00,VWS V14.01,2013-08-05 03:03:00,
2013-08-04 23:08:00,67.3,64.9,30.00,East,97,0.0,0.0,92,0.00,,---,0.00,0.00,VWS V14.01,2013-08-05 03:08:00,
2013-08-04 23:13:00,67.1,64.7,30.00,East,97,0.0,0.0,92,0.00,,---,0.00,0.00,VWS V14.01,2013-08-05 03:13:00,
2013-08-04 23:18:00,67.0,64.6,30.00,East,97,0.0,0.0,92,0.00,,---,0.00,0.00,VWS V14.01,2013-08-05 03:18:00,
2013-08-04 23:23:00,66.9,64.5,30.00,East,97,0.0,0.0,92,0.00,,---,0.00,0.00,VWS V14.01,2013-08-05 03:23:00,
2013-08-04 23:28:00,66.8,64.4,30.00,East,97,0.0,0.0,92,0.00,,---,0.00,0.00,VWS V14.01,2013-08-05 03:28:00,
2013-08-04 23:33:00,66.7,64.3,30.00,East,97,0.0,0.0,92,0.00,,---,0.00,0.00,VWS V14.01,2013-08-05 03:33:00,
2013-08-04 23:38:00,66.6,64.2,30.00,East,97,0.0,0.0,92,0.00,,---,0.00,0.00,VWS V14.01,2013-08-05 03:38:00,
2013-08-04 23:43:00,66.5,64.4,30.00,East,97,0.0,0.0,93,0.00,,---,0.00,0.00,VWS V14.01,2013-08-05 03:43:00,
2013-08-04 23:48:00,66.4,64.3,30.00,East,97,0.0,0.0,93,0.00,,---,0.00,0.00,VWS V14.01,2013-08-05 03:48:00,
2013-08-04 23:53:00,66.3,63.9,30.00,East,97,0.0,0.0,92,0.00,,---,0.00,0.00,VWS V14.01,2013-08-05 03:53:00,
2013-08-04 23:58:00,66.2,64.1,30.01,East,97,0.0,1.0,93,0.00,,---,0.00,0.00,VWS V14.01,2013-08-05 03:58:00,